createdAt,value
2022-08-09T00:14:12.371Z,5.30
2022-08-09T00:16:49.286Z,4.43
2022-08-09T00:19:18.474Z,4.53
2022-08-09T00:21:56.703Z,4.30
2022-08-09T00:24:27.103Z,4.35
2022-08-09T00:26:54.613Z,4.45
2022-08-09T00:29:39.875Z,5.15
2022-08-09T00:32:08.128Z,4.95
2022-08-09T00:37:13.108Z,4.28
2022-08-09T00:40:12.060Z,5.75
2022-08-09T00:44:11.478Z,5.18
2022-08-09T00:45:16.142Z,5.65
2022-08-09T00:47:44.008Z,4.70
2022-08-09T00:50:14.768Z,4.10
2022-08-09T00:52:42.488Z,4.95
2022-08-09T00:55:16.792Z,4.75
2022-08-09T00:57:59.326Z,4.28
2022-08-09T01:00:27.359Z,6.18
2022-08-09T01:03:08.225Z,8.80
2022-08-09T01:05:54.129Z,6.50
2022-08-09T01:08:33.284Z,7.00
2022-08-09T01:11:24.125Z,6.53
2022-08-09T01:13:59.322Z,6.05
2022-08-09T01:16:36.905Z,5.15
2022-08-09T01:19:40.042Z,6.50
2022-08-09T01:22:37.737Z,5.82
2022-08-09T01:25:26.970Z,5.50
2022-08-09T01:27:57.056Z,5.07
2022-08-09T01:30:33.449Z,5.00
2022-08-09T01:33:12.695Z,5.13
2022-08-09T01:35:42.527Z,4.53
2022-08-09T01:38:20.016Z,6.65
2022-08-09T01:41:11.809Z,7.00
2022-08-09T01:43:50.233Z,7.53
2022-08-09T01:46:26.999Z,5.05
2022-08-09T01:49:10.744Z,5.05
2022-08-09T01:51:44.533Z,4.90
2022-08-09T01:54:26.026Z,4.50
2022-08-09T01:56:55.403Z,6.15
2022-08-09T01:59:24.533Z,4.95
2022-08-09T02:02:02.636Z,5.47
2022-08-09T02:04:32.825Z,7.38
2022-08-09T02:07:21.208Z,7.53
2022-08-09T02:10:29.687Z,6.20
2022-08-09T02:12:58.766Z,5.03
2022-08-09T02:15:27.451Z,4.90
2022-08-09T02:18:17.426Z,4.30
2022-08-09T02:20:49.416Z,5.35
2022-08-09T02:23:43.223Z,7.35
2022-08-09T02:26:25.041Z,5.47
2022-08-09T02:28:59.531Z,6.47
2022-08-09T02:31:35.537Z,4.63
2022-08-09T02:34:13.434Z,4.88
2022-08-09T02:36:55.405Z,5.03
2022-08-09T02:39:34.186Z,6.32
2022-08-09T02:42:16.857Z,5.78
2022-08-09T02:44:50.652Z,5.72
2022-08-09T02:47:21.806Z,5.47
2022-08-09T02:50:01.450Z,5.70
2022-08-09T02:52:37.549Z,5.35
2022-08-09T02:55:20.072Z,5.63
2022-08-09T02:58:00.733Z,5.70
2022-08-09T03:00:58.297Z,5.90
2022-08-09T03:04:13.104Z,5.60
2022-08-09T03:06:16.159Z,4.72
2022-08-09T03:08:47.499Z,4.47
2022-08-09T03:11:30.074Z,4.75
2022-08-09T03:14:10.155Z,4.20
2022-08-09T03:16:41.701Z,4.63
2022-08-09T03:19:16.604Z,4.15
2022-08-09T03:22:03.128Z,3.95
2022-08-09T03:24:42.875Z,3.85
2022-08-09T03:27:21.553Z,3.63
2022-08-09T03:29:57.663Z,4.70
2022-08-09T03:32:30.820Z,6.28
2022-08-09T03:34:59.641Z,3.95
2022-08-09T03:37:55.693Z,3.70
2022-08-09T03:40:18.139Z,5.25
2022-08-09T03:42:46.686Z,3.50
2022-08-09T03:45:13.753Z,5.22
2022-08-09T03:47:46.461Z,4.93
2022-08-09T03:50:27.577Z,4.38
2022-08-09T03:52:56.377Z,4.30
2022-08-09T03:55:24.829Z,6.45
2022-08-09T03:58:06.546Z,4.43
2022-08-09T04:00:42.926Z,4.40
2022-08-09T04:03:15.257Z,6.68
2022-08-09T04:05:47.098Z,7.20
2022-08-09T04:08:14.647Z,5.70
2022-08-09T04:10:44.125Z,4.97
2022-08-09T04:13:18.803Z,4.38
2022-08-09T04:16:19.672Z,4.53
2022-08-09T04:18:32.875Z,4.57
2022-08-09T04:21:00.358Z,4.68
2022-08-09T04:23:27.221Z,4.85
2022-08-09T04:25:55.018Z,5.28
2022-08-09T04:28:34.099Z,4.80
2022-08-09T04:31:09.192Z,7.88
2022-08-09T04:33:47.262Z,5.40
2022-08-09T04:36:21.523Z,6.50
2022-08-09T04:38:50.246Z,5.13
2022-08-09T04:41:17.191Z,6.28
2022-08-09T04:43:53.891Z,4.80
2022-08-09T04:46:57.785Z,7.68
2022-08-09T04:49:30.517Z,5.07
2022-08-09T04:52:07.497Z,5.28
2022-08-09T04:54:36.383Z,6.18
2022-08-09T04:57:04.012Z,6.32
2022-08-09T04:59:34.041Z,7.60
2022-08-09T05:02:02.930Z,5.47
2022-08-09T05:04:30.730Z,6.40
2022-08-09T05:06:58.439Z,7.18
2022-08-09T05:09:25.277Z,5.10
2022-08-09T05:12:09.688Z,8.07
2022-08-09T05:14:38.001Z,6.85
2022-08-09T05:18:36.697Z,6.05
2022-08-09T05:19:58.159Z,8.20
2022-08-09T05:22:33.402Z,7.60
2022-08-09T05:25:15.172Z,7.57
2022-08-09T05:27:46.680Z,6.90
2022-08-09T05:30:16.001Z,6.00
2022-08-09T05:32:45.714Z,5.53
2022-08-09T05:35:18.082Z,6.38
2022-08-09T05:37:47.558Z,4.90
2022-08-09T05:40:15.395Z,5.07
2022-08-09T05:42:43.006Z,5.07
2022-08-09T05:45:10.953Z,4.97
2022-08-09T05:47:51.558Z,4.60
2022-08-09T05:50:34.897Z,4.50
2022-08-09T05:53:06.390Z,4.05
2022-08-09T05:55:48.135Z,4.00
2022-08-09T05:58:19.844Z,4.30
2022-08-09T06:00:46.656Z,4.22
2022-08-09T06:03:13.560Z,4.20
2022-08-09T06:05:57.037Z,3.85
2022-08-09T06:08:31.738Z,4.53
2022-08-09T06:10:59.196Z,4.70
2022-08-09T06:13:28.566Z,4.93
2022-08-09T06:16:04.875Z,4.95
2022-08-09T06:18:33.122Z,5.30
2022-08-09T06:21:00.899Z,4.15
2022-08-09T06:23:58.537Z,5.35
2022-08-09T06:26:21.233Z,4.82
2022-08-09T06:29:00.912Z,4.13
2022-08-09T06:31:39.778Z,5.40
2022-08-09T06:34:20.237Z,3.88
2022-08-09T06:36:49.746Z,4.28
2022-08-09T06:39:24.338Z,4.57
2022-08-09T06:42:11.347Z,3.40
2022-08-09T06:44:38.429Z,4.65
2022-08-09T06:47:05.462Z,3.60
2022-08-09T06:50:12.104Z,4.03
2022-08-09T06:52:23.503Z,3.70
2022-08-09T06:54:51.963Z,3.38
2022-08-09T06:57:21.042Z,3.00
2022-08-09T07:00:54.358Z,2.92
2022-08-09T07:02:56.113Z,3.22
2022-08-09T07:05:24.608Z,3.00
2022-08-09T07:08:11.391Z,3.13
2022-08-09T07:10:38.445Z,3.30
2022-08-09T07:13:28.339Z,2.88
2022-08-09T07:16:41.532Z,3.22
2022-08-09T07:18:39.884Z,3.10
2022-08-09T07:21:08.185Z,3.10
2022-08-09T07:23:36.052Z,3.17
2022-08-09T07:26:04.311Z,3.65
2022-08-09T07:28:34.960Z,2.80
2022-08-09T07:31:05.064Z,2.70
2022-08-09T07:33:53.233Z,2.90
2022-08-09T07:36:23.137Z,2.40
2022-08-09T07:38:56.747Z,2.75
2022-08-09T07:41:27.606Z,2.17
2022-08-09T07:44:00.235Z,2.30
2022-08-09T07:46:27.779Z,2.30
2022-08-09T07:48:59.416Z,2.35
2022-08-09T07:52:05.254Z,2.65
2022-08-09T07:54:15.689Z,2.20
2022-08-09T07:56:54.622Z,2.10
2022-08-09T07:59:33.939Z,1.88
2022-08-09T08:02:09.098Z,3.45
2022-08-09T08:04:37.322Z,3.40
2022-08-09T08:07:15.371Z,2.45
2022-08-09T08:10:05.653Z,2.90
2022-08-09T08:12:36.789Z,2.67
2022-08-09T08:15:04.731Z,2.70
2022-08-09T08:17:52.184Z,2.65
2022-08-09T08:20:19.598Z,2.75
2022-08-09T08:23:01.729Z,2.72
2022-08-09T08:25:39.992Z,2.88
2022-08-09T08:28:10.975Z,3.00
2022-08-09T08:30:41.974Z,2.63
2022-08-09T08:33:11.692Z,2.10
2022-08-09T08:35:59.793Z,2.70
2022-08-09T08:38:25.687Z,2.72
2022-08-09T08:40:56.590Z,2.50
2022-08-09T08:43:26.533Z,2.58
2022-08-09T08:46:03.655Z,3.05
2022-08-09T08:48:32.844Z,2.38
2022-08-09T08:51:00.274Z,2.50
2022-08-09T08:53:32.357Z,2.83
2022-08-09T08:56:06.087Z,2.92
2022-08-09T08:58:35.879Z,2.55
2022-08-09T09:01:04.265Z,2.20
2022-08-09T09:03:37.614Z,2.10
2022-08-09T09:06:05.867Z,2.25
2022-08-09T09:08:40.962Z,2.17
2022-08-09T09:11:13.382Z,2.30
2022-08-09T09:13:56.851Z,2.63
2022-08-09T09:16:34.298Z,2.50
2022-08-09T09:19:36.949Z,2.35
2022-08-09T09:22:11.714Z,2.65
2022-08-09T09:24:56.542Z,2.97
2022-08-09T09:28:04.184Z,2.47
2022-08-09T09:33:13.895Z,2.40
2022-08-09T09:36:03.966Z,2.60
2022-08-09T09:38:58.182Z,2.38
2022-08-09T09:41:27.861Z,2.72
2022-08-09T09:44:12.373Z,2.60
2022-08-09T09:46:50.583Z,2.35
2022-08-09T09:49:32.002Z,2.60
2022-08-09T09:52:16.487Z,2.20
2022-08-09T09:55:24.137Z,2.33
2022-08-09T09:58:16.808Z,2.00
2022-08-09T10:00:58.922Z,2.13
2022-08-09T10:06:06.839Z,2.17
2022-08-09T10:08:43.301Z,2.28
2022-08-09T10:12:11.327Z,2.35
2022-08-09T10:14:33.064Z,2.03
2022-08-09T10:17:39.701Z,2.40
2022-08-09T10:19:58.892Z,2.10
2022-08-09T10:22:39.279Z,2.35
2022-08-09T10:25:12.071Z,2.70
2022-08-09T10:27:56.808Z,2.45
2022-08-09T10:32:03.813Z,1.90
2022-08-09T10:34:05.301Z,1.95
2022-08-09T10:36:02.350Z,2.33
2022-08-09T10:38:43.257Z,2.30
2022-08-09T10:41:18.730Z,2.40
2022-08-09T10:43:58.671Z,2.10
2022-08-09T10:46:57.671Z,2.08
2022-08-09T10:49:51.892Z,1.77
2022-08-09T10:52:50.107Z,1.63
2022-08-09T10:55:26.657Z,2.20
2022-08-09T10:58:00.121Z,2.58
2022-08-09T11:00:30.040Z,2.10
2022-08-09T11:03:18.833Z,2.40
2022-08-09T11:06:16.060Z,1.80
2022-08-09T11:08:53.121Z,2.25
2022-08-09T11:11:21.509Z,2.10
2022-08-09T11:14:28.606Z,1.95
2022-08-09T11:16:57.214Z,2.13
2022-08-09T11:20:11.619Z,2.17
2022-08-09T11:22:44.768Z,2.08
2022-08-09T11:25:25.856Z,2.30
2022-08-09T11:28:34.004Z,1.70
2022-08-09T11:31:03.945Z,1.80
2022-08-09T11:33:48.570Z,1.80
2022-08-09T11:36:30.219Z,2.67
2022-08-09T11:39:02.337Z,2.00
2022-08-09T11:41:38.119Z,1.85
2022-08-09T11:44:07.988Z,1.95
2022-08-09T11:46:54.626Z,1.88
2022-08-09T11:50:53.293Z,2.30
2022-08-09T11:53:16.351Z,2.00
2022-08-09T11:55:52.312Z,1.92
2022-08-09T11:58:32.533Z,2.13
2022-08-09T12:01:15.422Z,2.35
2022-08-09T12:04:02.678Z,2.20
2022-08-09T12:06:34.869Z,2.13
2022-08-09T12:09:19.584Z,1.88
2022-08-09T12:12:05.538Z,2.30
2022-08-09T12:14:59.142Z,2.03
2022-08-09T12:17:34.497Z,1.90
2022-08-09T12:20:23.901Z,2.00
2022-08-09T12:22:59.461Z,1.80
2022-08-09T12:25:36.525Z,2.20
2022-08-09T12:29:13.475Z,2.50
2022-08-09T12:31:10.808Z,2.20
2022-08-09T12:33:58.457Z,1.88
2022-08-09T12:36:31.400Z,4.63
2022-08-09T12:39:00.713Z,2.30
2022-08-09T12:41:36.285Z,2.47
2022-08-09T12:44:09.699Z,1.92
2022-08-09T12:46:48.536Z,2.22
2022-08-09T12:49:17.265Z,1.95
2022-08-09T12:52:02.167Z,1.83
2022-08-09T12:56:10.958Z,2.53
2022-08-09T12:57:46.539Z,1.95
2022-08-09T13:00:25.056Z,2.28
2022-08-09T13:03:01.283Z,2.00
2022-08-09T13:05:52.373Z,1.90
2022-08-09T13:08:40.110Z,2.22
2022-08-09T13:11:22.805Z,2.15
2022-08-09T13:14:41.988Z,2.08
2022-08-09T13:16:56.474Z,1.80
2022-08-09T13:22:35.478Z,1.83
2022-08-09T13:25:07.421Z,1.95
2022-08-09T13:27:48.209Z,1.73
2022-08-09T13:30:51.016Z,2.20
2022-08-09T13:33:17.139Z,1.95
2022-08-09T13:36:41.467Z,1.85
2022-08-09T13:38:56.715Z,2.10
2022-08-09T13:41:55.005Z,1.90
2022-08-09T13:44:09.500Z,2.08
2022-08-09T13:47:26.616Z,2.03
2022-08-09T13:49:37.767Z,1.80
2022-08-09T13:52:09.491Z,2.00
2022-08-09T13:54:43.031Z,1.95
2022-08-09T13:57:35.409Z,1.73
2022-08-09T14:00:12.205Z,2.00
2022-08-09T14:02:42.498Z,1.85
2022-08-09T14:06:00.526Z,1.65
2022-08-09T14:08:17.655Z,2.10
2022-08-09T14:10:51.834Z,2.03
2022-08-09T14:14:15.233Z,2.03
2022-08-09T14:16:13.854Z,1.80
2022-08-09T14:18:45.390Z,2.15
2022-08-09T14:21:20.257Z,1.92
2022-08-09T14:23:55.641Z,2.00
2022-08-09T14:26:30.537Z,1.95
2022-08-09T14:29:01.791Z,2.00
2022-08-09T14:31:36.218Z,2.05
2022-08-09T14:34:17.353Z,2.17
2022-08-09T14:36:55.485Z,1.80
2022-08-09T14:39:45.506Z,1.98
2022-08-09T14:42:10.343Z,1.88
2022-08-09T14:44:48.702Z,1.93
2022-08-09T14:47:41.340Z,2.05
2022-08-09T14:50:13.211Z,1.70
2022-08-09T14:52:43.458Z,1.90
2022-08-09T14:55:20.465Z,1.92
2022-08-09T14:57:48.789Z,1.90
2022-08-09T15:00:16.450Z,2.13
2022-08-09T15:02:47.449Z,2.92
2022-08-09T15:05:16.246Z,2.45
2022-08-09T15:07:45.587Z,2.15
2022-08-09T15:10:24.969Z,1.90
2022-08-09T15:12:52.792Z,2.25
2022-08-09T15:15:20.380Z,2.25
2022-08-09T15:17:52.456Z,1.80
2022-08-09T15:22:00.453Z,2.03
2022-08-09T15:24:02.073Z,1.98
2022-08-09T15:25:55.638Z,2.50
2022-08-09T15:28:27.593Z,2.10
2022-08-09T15:31:08.616Z,2.08
2022-08-09T15:34:17.738Z,2.13
2022-08-09T15:36:30.430Z,1.80
2022-08-09T15:39:00.946Z,2.53
2022-08-09T15:41:32.243Z,2.42
2022-08-09T15:44:03.056Z,2.08
2022-08-09T15:46:33.098Z,1.98
2022-08-09T15:49:22.423Z,1.85
2022-08-09T15:52:05.223Z,2.22
2022-08-09T15:54:52.697Z,2.15
2022-08-09T15:57:33.853Z,1.77
2022-08-09T16:00:26.097Z,2.50
2022-08-09T16:02:56.269Z,2.28
2022-08-09T16:05:53.192Z,1.93
2022-08-09T16:08:30.679Z,2.20
2022-08-09T16:10:59.884Z,2.17
2022-08-09T16:14:03.638Z,1.73
2022-08-09T16:16:18.727Z,1.88
2022-08-09T16:18:47.197Z,2.30
2022-08-09T16:21:17.772Z,1.90
2022-08-09T16:23:55.734Z,2.30
2022-08-09T16:26:34.707Z,2.00
2022-08-09T16:29:14.218Z,2.00
2022-08-09T16:32:19.794Z,2.45
2022-08-09T16:34:54.821Z,2.65
2022-08-09T16:37:54.018Z,1.98
2022-08-09T16:40:11.025Z,2.45
2022-08-09T16:42:45.159Z,2.45
2022-08-09T16:45:14.428Z,2.10
2022-08-09T16:48:38.673Z,2.30
2022-08-09T16:50:33.780Z,1.92
2022-08-09T16:53:02.532Z,1.98
2022-08-09T16:55:58.715Z,2.42
2022-08-09T16:58:18.315Z,2.20
2022-08-09T17:00:46.565Z,2.08
2022-08-09T17:03:22.071Z,1.85
2022-08-09T17:06:07.321Z,2.00
2022-08-09T17:08:58.852Z,1.95
2022-08-09T17:11:33.015Z,2.00
2022-08-09T17:14:09.026Z,2.03
2022-08-09T17:16:53.882Z,2.10
2022-08-09T17:19:20.864Z,2.10
2022-08-09T17:21:47.943Z,1.80
2022-08-09T17:24:30.536Z,2.20
2022-08-09T17:26:58.422Z,2.20
2022-08-09T17:29:31.780Z,2.28
2022-08-09T17:32:05.126Z,2.47
2022-08-09T17:35:01.628Z,2.20
2022-08-09T17:37:19.257Z,2.47
2022-08-09T17:39:52.874Z,2.08
2022-08-09T17:42:41.962Z,2.20
2022-08-09T17:45:15.935Z,2.20
2022-08-09T17:47:55.471Z,2.10
2022-08-09T17:50:36.197Z,2.20
2022-08-09T17:53:19.409Z,2.28
2022-08-09T17:55:55.273Z,2.20
2022-08-09T17:58:27.068Z,2.60
2022-08-09T18:00:56.673Z,2.80
2022-08-09T18:03:26.080Z,2.50
2022-08-09T18:05:56.280Z,2.20
2022-08-09T18:08:27.685Z,2.10
2022-08-09T18:11:02.236Z,2.40
2022-08-09T18:13:38.924Z,2.20
2022-08-09T18:16:30.410Z,2.70
2022-08-09T18:19:03.507Z,2.65
2022-08-09T18:21:41.427Z,2.35
2022-08-09T18:24:14.493Z,2.45
2022-08-09T18:26:47.011Z,2.08
2022-08-09T18:30:40.041Z,2.30
2022-08-09T18:32:05.013Z,2.55
2022-08-09T18:34:35.657Z,3.03
2022-08-09T18:37:46.900Z,2.40
2022-08-09T18:39:58.669Z,2.83
2022-08-09T18:42:28.221Z,3.00
2022-08-09T18:44:57.103Z,2.53
2022-08-09T18:47:32.628Z,4.78
2022-08-09T18:50:05.773Z,2.50
2022-08-09T18:52:36.542Z,2.67
2022-08-09T18:55:05.087Z,2.55
2022-08-09T18:57:42.954Z,3.22
2022-08-09T19:00:16.795Z,3.67
2022-08-09T19:02:46.794Z,3.28
2022-08-09T19:05:20.452Z,5.05
2022-08-09T19:07:59.357Z,4.35
2022-08-09T19:10:37.028Z,4.35
2022-08-09T19:13:19.960Z,4.10
2022-08-09T19:15:55.856Z,4.53
2022-08-09T19:18:33.265Z,3.92
2022-08-09T19:21:09.307Z,4.15
2022-08-09T19:24:33.280Z,3.75
2022-08-09T19:26:31.229Z,3.55
2022-08-09T19:29:01.959Z,5.15
2022-08-09T19:31:30.780Z,6.80
2022-08-09T19:34:22.104Z,5.68
2022-08-09T19:36:51.753Z,5.40
2022-08-09T19:39:18.771Z,5.35
2022-08-09T19:41:48.731Z,5.50
2022-08-09T19:44:20.760Z,4.78
2022-08-09T19:46:50.086Z,4.65
2022-08-09T19:50:09.278Z,4.80
2022-08-09T19:52:08.613Z,5.07
2022-08-09T19:54:35.877Z,5.13
2022-08-09T19:57:02.666Z,6.28
2022-08-09T19:59:58.386Z,5.93
2022-08-09T20:04:12.547Z,6.35
2022-08-09T20:05:11.557Z,6.65
2022-08-09T20:07:59.298Z,6.57
2022-08-09T20:10:34.428Z,5.65
2022-08-09T20:13:03.111Z,6.30
2022-08-09T20:16:38.344Z,6.57
2022-08-09T20:18:19.649Z,6.72
2022-08-09T20:20:47.501Z,7.43
2022-08-09T20:23:21.057Z,5.93
2022-08-09T20:25:52.243Z,5.45
2022-08-09T20:28:34.449Z,5.83
2022-08-09T20:31:13.831Z,4.75
2022-08-09T20:33:44.281Z,4.70
2022-08-09T20:36:11.959Z,4.43
2022-08-09T20:41:34.792Z,3.97
2022-08-09T20:44:06.837Z,3.97
2022-08-09T20:46:42.908Z,4.65
2022-08-09T20:49:12.873Z,3.88
2022-08-09T20:51:41.657Z,4.40
2022-08-09T20:54:12.540Z,4.47
2022-08-09T20:56:43.314Z,3.45
2022-08-09T20:59:13.808Z,4.63
2022-08-09T21:01:51.110Z,3.25
2022-08-09T21:05:57.824Z,4.25
2022-08-09T21:07:13.226Z,4.40
2022-08-09T21:09:56.083Z,4.72
2022-08-09T21:12:32.138Z,3.85
2022-08-09T21:15:15.413Z,4.20
2022-08-09T21:18:21.687Z,4.03
2022-08-09T21:20:30.854Z,3.80
2022-08-09T21:22:59.281Z,4.30
2022-08-09T21:25:56.381Z,3.90
2022-08-09T21:28:33.362Z,3.22
2022-08-09T21:31:17.731Z,3.25
2022-08-09T21:33:52.078Z,4.10
2022-08-09T21:36:23.225Z,4.35
2022-08-09T21:38:57.769Z,3.90
2022-08-09T21:42:03.854Z,3.90
2022-08-09T21:44:33.294Z,4.22
2022-08-09T21:47:07.898Z,3.08
2022-08-09T21:49:42.782Z,3.95
2022-08-09T21:52:18.159Z,3.72
2022-08-09T21:54:49.556Z,4.25
2022-08-09T21:57:25.458Z,3.38
2022-08-09T22:00:10.726Z,3.28
2022-08-09T22:02:38.058Z,4.07
2022-08-09T22:05:17.127Z,3.88
2022-08-09T22:07:53.113Z,3.80
2022-08-09T22:10:23.338Z,3.45
2022-08-09T22:12:51.270Z,3.45
2022-08-09T22:15:20.603Z,3.63
2022-08-09T22:17:50.805Z,2.92
2022-08-09T22:20:21.968Z,2.97
2022-08-09T22:22:54.400Z,3.00
2022-08-09T22:26:08.430Z,3.22
2022-08-09T22:28:07.976Z,2.85
2022-08-09T22:30:34.961Z,3.08
2022-08-09T22:33:09.488Z,3.15
2022-08-09T22:36:01.855Z,2.92
2022-08-09T22:38:23.900Z,3.20
2022-08-09T22:40:57.403Z,3.47
2022-08-09T22:44:00.758Z,3.25
2022-08-09T22:48:15.664Z,3.00
2022-08-09T22:48:59.896Z,2.90
2022-08-09T22:51:28.754Z,2.63
2022-08-09T22:54:02.175Z,2.70
2022-08-09T22:56:33.534Z,3.30
2022-08-09T22:59:05.766Z,3.40
2022-08-09T23:01:51.959Z,3.30
2022-08-09T23:04:19.000Z,3.08
2022-08-09T23:07:11.251Z,3.15
2022-08-09T23:09:39.301Z,3.40
2022-08-09T23:12:07.280Z,3.78
2022-08-09T23:14:41.587Z,3.85
2022-08-09T23:17:10.544Z,4.55
2022-08-09T23:20:02.457Z,5.10
2022-08-09T23:22:24.306Z,4.90
2022-08-09T23:24:51.341Z,5.60
2022-08-09T23:27:18.098Z,5.80
2022-08-09T23:29:45.018Z,6.35
2022-08-09T23:32:12.350Z,6.20
2022-08-09T23:34:39.382Z,5.72
2022-08-09T23:37:06.608Z,7.28
2022-08-09T23:39:33.528Z,6.22
2022-08-09T23:42:00.398Z,6.65
2022-08-09T23:44:27.300Z,6.68
2022-08-09T23:46:57.305Z,6.72
2022-08-09T23:49:25.077Z,6.55
2022-08-09T23:51:52.697Z,6.22
2022-08-09T23:54:19.770Z,6.20
2022-08-09T23:56:54.088Z,5.93
2022-08-09T23:59:22.484Z,5.60
